New Hope, Mississippi
Current Conditions -  °F | °C
As of 9:50 AM on Saturday 25 Oct 2014 (Local Time) from KGTR Reporting Station
Clear Clear  
Wind Chill: 66°   Ceiling: Unl
Heat Index: 66°   Visibility: 10mi
Dew Point: 54°   Wind: 5mph
Humidity: 64%   Direction: 310°NW
Pressure: 30.14"   Gusts: NA
Location:  33.455°N, 88.5512°W
Report Text: KGTR 251450Z 31004KT 10SM SKC 19/12 A3014
Loading
Personal Weather Stations






























Interactive Weather Map New forecast layout! Learn more

10-Day Weather Forecast

Advertisements
Track Severe Weather on mobile